KBDL/BDL METAR and TAF weather

Enter ICAO airport designator
Station Type Date Time Source
KBDL METAR 2019/04/18 09:51 UTC NOAA

KBDL 180951Z 00000KT 10SM BKN065 OVC100 06/04 A3022 RMK AO2 RAB17E33 SLP234 P0000 T00610039


Station Type Date Time Source
KBDL Decoded METAR 2019/04/18 09:51 UTC NOAA

BRADLEY INTERNATIONAL AIRPORT , CT, United States (KBDL) 41-56N 072-41W 60M
Apr 18, 2019 - 05:51 AM EDT / 2019.04.18 0951 UTC
Wind: Calm:0
Visibility: 10 mile(s):0
Sky conditions: overcast
Precipitation last hour: A trace
Temperature: 43.0 F (6.1 C)
Dew Point: 39.0 F (3.9 C)
Relative Humidity: 85%
Pressure (altimeter): 30.22 in. Hg (1023 hPa)
ob: KBDL 180951Z 00000KT 10SM BKN065 OVC100 06/04 A3022 RMK AO2 RAB17E33 SLP234 P0000 T00610039
cycle: 10

Station Type Date Time Source
KBDL TAF 2019/04/18 08:22 UTC NOAA

TAF
AMD KBDL 180820Z 1808/1912 17006KT P6SM VCSH BKN060
FM181100 17008KT P6SM OVC060
FM181800 16011G20KT P6SM OVC020
FM182100 16010G18KT P6SM VCSH OVC010
FM190000 17009KT 3SM -DZ BR OVC008
FM190300 17010KT P6SM OVC025
FM190900 19010KT P6SM VCSH BKN010

Example: see airport list